Impacts METAR Board
IDs:

KATL - Atlanta/Hartsfield I, GA, US

Updated at: 2100 UTC 01 Feb 2023
Potential Impact None Slight Moderate High
Time 01/09Z 01/10Z 01/11Z 01/12Z 01/13Z 01/14Z 01/15Z 01/16Z 01/17Z 01/18Z 01/19Z 01/20Z 01/21Z
Temp58 57 55 52 51 51 50 50 53 55 56 57 57
Dewpt56 56 54 51 50 49 48 48 47 48 48 48 48
Altim30.12 30.14 30.14 30.17 30.19 30.21 30.24 30.26 30.24 30.21 30.19 30.17 30.16
VIS10 1.5 0.75 5 4 6 1.25 6 10 10 10 10 10
CIG5 3 2 4 6 5 4 4 22 48 48 200 20
CoverOVCOVCOVXOVCOVCOVCOVCOVCOVCOVCBKNBKNBKN
FltCatIFRLIFRLIFRLIFRIFRIFRLIFRLIFRMVFRVFRVFRVFRMVFR
WX--BR-DZ BRBR-DZ BRBRBRBR----------
WDir300330320320300300340330310300290320330
WSpd8 8 5 10 10 10 6 8 6 6 5 6 5
WGst-- -- -- -- -- -- -- 18 -- -- -- -- --
Raw hourly METARs
KATL 010902Z 30008KT 10SM BKN005 OVC065 14/13 A3012 RMK AO2 T01440133
KATL 010958Z 33008KT 1 1/2SM BR OVC003 14/13 A3014 RMK AO2 CIG 002V004 T01390133
KATL 011052Z 32005KT 3/4SM R09R/4000V5000FT -DZ BR VV002 13/12 A3014 RMK AO2 DZB44 SLP204 P0000 T01280122
KATL 011152Z 32010KT 5SM BR OVC004 11/11 A3017 RMK AO2 DZE31 SLP213 CIG 003V005 P0000 60000 70004 T01110106 10150 20111 52018
KATL 011252Z 30010KT 4SM -DZ BR BKN006 OVC013 11/10 A3019 RMK AO2 DZB50 SLP222 CIG 005V008 P0000 T01060100
KATL 011352Z 30010KT 6SM BR OVC005 11/09 A3021 RMK AO2 DZE24 SLP227 CIG 004V007 P0000 T01060094
KATL 011452Z 34006KT 1 1/4SM BR OVC004 10/09 A3024 RMK AO2 SFC VIS 5 SLP238 CIG 003V005 TWRINC 60000 T01000089 53023
KATL 011552Z 33008G18KT 6SM BR BKN004 OVC010 10/09 A3026 RMK AO2 SLP247 CIG 003V006 T01000089
KATL 011652Z 31006KT 10SM SCT009 OVC022 12/08 A3024 RMK AO2 SLP241 BINOVC T01170083
KATL 011801Z 30006KT 10SM FEW014 SCT024 OVC048 13/09 A3021 RMK AO2 T01280089
KATL 011852Z 29005KT 10SM FEW026 BKN048 BKN200 BKN250 13/09 A3019 RMK AO2 SLP222 T01330089
KATL 011952Z 32006KT 10SM FEW026 SCT065 SCT100 BKN200 BKN250 14/09 A3017 RMK AO2 SLP214 T01390089
KATL 012052Z 33005KT 10SM BKN020 BKN065 BKN110 BKN200 14/09 A3016 RMK AO2 SLP211 T01390089 56019



Page loaded:  21:25 UTC  |   01:25 PM Pacific  |   02:25 PM Mountain  |   03:25 PM Central  |   04:25 PM Eastern

 

ADVISORIES

FORECASTS

FORECASTS

OBSERVATIONS

USER TOOLS

ABOUT US